createdAt,value
2019-03-24T00:00:45.643Z,55.10
2019-03-24T00:03:17.037Z,47.73
2019-03-24T00:05:46.854Z,48.97
2019-03-24T00:08:16.641Z,45.53
2019-03-24T00:10:46.448Z,47.03
2019-03-24T00:13:16.267Z,43.20
2019-03-24T00:15:46.051Z,39.80
2019-03-24T00:18:15.863Z,46.40
2019-03-24T00:20:45.692Z,44.17
2019-03-24T00:23:15.498Z,40.53
2019-03-24T00:25:45.303Z,41.37
2019-03-24T00:28:15.167Z,42.27
2019-03-24T00:30:44.970Z,40.13
2019-03-24T00:33:14.764Z,41.07
2019-03-24T00:35:44.873Z,41.30
2019-03-24T00:38:14.675Z,43.33
2019-03-24T00:40:44.480Z,39.67
2019-03-24T00:43:14.283Z,40.60
2019-03-24T00:45:44.161Z,37.13
2019-03-24T00:48:13.963Z,40.50
2019-03-24T00:50:43.756Z,39.03
2019-03-24T00:53:13.631Z,41.90
2019-03-24T00:55:43.436Z,40.50
2019-03-24T00:58:13.243Z,34.70
2019-03-24T01:00:48.599Z,35.23
2019-03-24T01:03:19.619Z,39.50
2019-03-24T01:05:49.403Z,33.90
2019-03-24T01:08:19.285Z,35.10
2019-03-24T01:10:49.103Z,36.03
2019-03-24T01:13:18.971Z,32.37
2019-03-24T01:15:48.933Z,31.33
2019-03-24T01:18:18.799Z,26.70
2019-03-24T01:20:48.623Z,23.77
2019-03-24T01:23:18.412Z,24.93
2019-03-24T01:25:48.229Z,23.57
2019-03-24T01:28:18.007Z,21.43
2019-03-24T01:30:47.839Z,23.33
2019-03-24T01:33:17.642Z,24.00
2019-03-24T01:35:47.507Z,25.03
2019-03-24T01:38:17.318Z,23.93
2019-03-24T01:40:47.175Z,22.40
2019-03-24T01:43:16.975Z,23.40
2019-03-24T01:45:46.789Z,24.07
2019-03-24T01:48:16.579Z,22.87
2019-03-24T01:50:46.383Z,24.27
2019-03-24T01:53:16.168Z,24.47
2019-03-24T01:55:46.001Z,25.17
2019-03-24T01:58:15.796Z,23.83
2019-03-24T02:00:46.696Z,24.13
2019-03-24T02:03:17.655Z,22.47
2019-03-24T02:05:47.463Z,22.63
2019-03-24T02:08:17.279Z,21.47
2019-03-24T02:10:47.131Z,24.57
2019-03-24T02:13:16.935Z,20.63
2019-03-24T02:15:47.801Z,23.00
2019-03-24T02:18:17.601Z,22.40
2019-03-24T02:20:47.399Z,21.20
2019-03-24T02:23:17.193Z,25.07
2019-03-24T02:25:46.991Z,21.37
2019-03-24T02:28:17.540Z,23.07
2019-03-24T02:30:47.464Z,20.47
2019-03-24T02:33:17.263Z,24.57
2019-03-24T02:35:47.056Z,24.53
2019-03-24T02:38:16.848Z,19.67
2019-03-24T02:40:46.659Z,18.53
2019-03-24T02:43:17.509Z,22.77
2019-03-24T02:45:47.333Z,20.60
2019-03-24T02:48:17.116Z,21.83
2019-03-24T02:50:46.986Z,23.97
2019-03-24T02:53:16.788Z,18.97
2019-03-24T02:55:46.590Z,19.33
2019-03-24T02:58:16.390Z,19.37
2019-03-24T03:00:46.177Z,23.13
2019-03-24T03:03:15.985Z,21.47
2019-03-24T03:05:45.774Z,21.27
2019-03-24T03:08:15.585Z,21.73
2019-03-24T03:10:45.372Z,19.97
2019-03-24T03:13:15.176Z,18.27
2019-03-24T03:15:45.053Z,22.57
2019-03-24T03:18:14.840Z,20.33
2019-03-24T03:20:44.664Z,22.90
2019-03-24T03:23:14.462Z,25.10
2019-03-24T03:25:44.273Z,19.00
2019-03-24T03:28:14.067Z,23.63
2019-03-24T03:30:43.852Z,23.33
2019-03-24T03:33:14.042Z,20.50
2019-03-24T03:35:43.837Z,21.87
2019-03-24T03:38:13.646Z,23.73
2019-03-24T03:40:43.519Z,20.73
2019-03-24T03:43:13.337Z,25.50
2019-03-24T03:45:43.137Z,23.77
2019-03-24T03:48:12.932Z,21.67
2019-03-24T03:50:42.735Z,25.57
2019-03-24T03:53:12.528Z,20.90
2019-03-24T03:55:42.339Z,21.07
2019-03-24T03:58:13.096Z,23.90
2019-03-24T04:00:42.914Z,22.60
2019-03-24T04:03:12.679Z,23.27
2019-03-24T04:05:42.483Z,22.63
2019-03-24T04:08:12.288Z,27.77
2019-03-24T04:10:42.083Z,24.83
2019-03-24T04:13:11.913Z,23.73
2019-03-24T04:15:41.857Z,23.67
2019-03-24T04:18:11.669Z,23.43
2019-03-24T04:20:41.479Z,26.00
2019-03-24T04:23:11.285Z,26.10
2019-03-24T04:25:41.067Z,22.00
2019-03-24T04:28:10.879Z,20.20
2019-03-24T04:30:40.673Z,27.93
2019-03-24T04:33:10.499Z,25.97
2019-03-24T04:35:40.298Z,23.37
2019-03-24T04:38:10.088Z,21.60
2019-03-24T04:40:39.897Z,23.93
2019-03-24T04:43:09.691Z,28.60
2019-03-24T04:45:39.500Z,25.13
2019-03-24T04:48:09.303Z,26.23
2019-03-24T04:50:39.107Z,25.43
2019-03-24T04:53:08.899Z,26.13
2019-03-24T04:55:38.707Z,25.30
2019-03-24T04:58:08.491Z,32.63
2019-03-24T05:00:40.143Z,24.63
2019-03-24T05:03:09.931Z,28.77
2019-03-24T05:05:40.082Z,27.90
2019-03-24T05:08:12.591Z,35.67
2019-03-24T05:10:42.419Z,29.73
2019-03-24T05:13:12.211Z,31.10
2019-03-24T05:15:42.010Z,24.80
2019-03-24T05:18:11.811Z,27.80
2019-03-24T05:20:41.593Z,31.77
2019-03-24T05:23:12.472Z,25.27
2019-03-24T05:25:42.336Z,30.93
2019-03-24T05:28:12.140Z,32.50
2019-03-24T05:30:41.932Z,32.23
2019-03-24T05:33:11.741Z,32.63
2019-03-24T05:35:42.624Z,32.97
2019-03-24T05:38:12.420Z,30.57
2019-03-24T05:40:42.232Z,28.83
2019-03-24T05:43:12.248Z,33.13
2019-03-24T05:45:42.048Z,28.83
2019-03-24T05:48:11.858Z,30.77
2019-03-24T05:50:41.651Z,30.13
2019-03-24T05:53:11.460Z,35.57
2019-03-24T05:55:41.255Z,32.10
2019-03-24T05:58:11.050Z,30.97
2019-03-24T06:00:40.852Z,32.23
2019-03-24T06:03:10.650Z,29.53
2019-03-24T06:05:40.454Z,35.77
2019-03-24T06:08:10.239Z,38.07
2019-03-24T06:10:40.054Z,33.40
2019-03-24T06:13:09.843Z,33.50
2019-03-24T06:15:39.681Z,35.60
2019-03-24T06:18:09.480Z,33.20
2019-03-24T06:20:39.275Z,32.83
2019-03-24T06:23:09.076Z,35.67
2019-03-24T06:25:38.878Z,28.83
2019-03-24T06:28:08.683Z,33.50
2019-03-24T06:30:39.451Z,33.37
2019-03-24T06:33:09.260Z,31.60
2019-03-24T06:35:39.053Z,35.17
2019-03-24T06:38:09.843Z,37.30
2019-03-24T06:40:39.631Z,37.40
2019-03-24T06:43:09.435Z,34.50
2019-03-24T06:45:39.227Z,35.27
2019-03-24T06:48:09.035Z,39.07
2019-03-24T06:50:38.820Z,43.27
2019-03-24T06:53:08.636Z,33.17
2019-03-24T06:55:38.449Z,35.77
2019-03-24T06:58:08.312Z,41.70
2019-03-24T07:00:38.116Z,41.40
2019-03-24T07:03:07.923Z,36.70
2019-03-24T07:05:37.730Z,38.23
2019-03-24T07:08:07.522Z,38.00
2019-03-24T07:10:37.328Z,37.93
2019-03-24T07:13:07.121Z,34.73
2019-03-24T07:15:36.935Z,40.27
2019-03-24T07:18:08.602Z,41.27
2019-03-24T07:20:38.214Z,38.83
2019-03-24T07:23:08.003Z,44.07
2019-03-24T07:25:37.803Z,45.83
2019-03-24T07:28:07.596Z,39.53
2019-03-24T07:30:37.404Z,42.07
2019-03-24T07:33:07.191Z,38.80
2019-03-24T07:35:37.166Z,36.60
2019-03-24T07:38:06.967Z,37.37
2019-03-24T07:40:36.851Z,37.23
2019-03-24T07:43:06.651Z,44.07
2019-03-24T07:45:36.468Z,44.53
2019-03-24T07:48:06.271Z,38.33
2019-03-24T07:50:36.051Z,39.63
2019-03-24T07:53:05.852Z,38.00
2019-03-24T07:55:36.006Z,38.17
2019-03-24T07:58:05.812Z,46.23
2019-03-24T08:00:38.548Z,42.03
2019-03-24T08:03:08.349Z,31.03
2019-03-24T08:05:38.208Z,40.43
2019-03-24T08:08:08.003Z,35.17
2019-03-24T08:10:37.791Z,38.27
2019-03-24T08:13:07.609Z,36.80
2019-03-24T08:15:37.398Z,34.33
2019-03-24T08:18:07.213Z,30.90
2019-03-24T08:20:36.991Z,39.80
2019-03-24T08:23:06.799Z,35.53
2019-03-24T08:25:36.595Z,35.73
2019-03-24T08:28:06.467Z,37.17
2019-03-24T08:30:37.007Z,28.87
2019-03-24T08:33:06.797Z,36.33
2019-03-24T08:35:36.606Z,34.13
2019-03-24T08:38:06.471Z,33.17
2019-03-24T08:40:36.269Z,30.43
2019-03-24T08:43:06.129Z,34.37
2019-03-24T08:45:35.927Z,36.37
2019-03-24T08:48:05.992Z,34.80
2019-03-24T08:50:35.793Z,38.10
2019-03-24T08:53:06.884Z,34.87
2019-03-24T08:55:36.801Z,36.40
2019-03-24T08:58:06.601Z,36.90
2019-03-24T09:00:36.486Z,34.17
2019-03-24T09:03:06.283Z,36.57
2019-03-24T09:05:37.176Z,41.33
2019-03-24T09:08:07.035Z,35.53
2019-03-24T09:10:49.063Z,31.07
2019-03-24T09:13:18.855Z,34.57
2019-03-24T09:15:48.651Z,34.93
2019-03-24T09:18:18.442Z,31.93
2019-03-24T09:20:48.243Z,32.20
2019-03-24T09:23:18.047Z,31.17
2019-03-24T09:25:47.837Z,36.10
2019-03-24T09:28:17.637Z,30.13
2019-03-24T09:30:47.423Z,30.27
2019-03-24T09:33:17.227Z,35.47
2019-03-24T09:35:47.031Z,33.87
2019-03-24T09:38:16.833Z,35.97
2019-03-24T09:40:47.088Z,32.13
2019-03-24T09:43:16.896Z,36.47
2019-03-24T09:45:46.676Z,32.30
2019-03-24T09:48:16.480Z,34.53
2019-03-24T09:50:46.268Z,33.43
2019-03-24T09:53:16.066Z,30.60
2019-03-24T09:55:45.860Z,30.47
2019-03-24T09:58:15.675Z,32.43
2019-03-24T10:00:45.464Z,26.50
2019-03-24T10:03:15.272Z,27.37
2019-03-24T10:05:45.147Z,25.07
2019-03-24T10:08:15.200Z,24.40
2019-03-24T10:10:44.999Z,25.87
2019-03-24T10:13:14.459Z,24.27
2019-03-24T10:15:44.067Z,26.52
2019-03-24T10:18:13.859Z,28.12
2019-03-24T10:20:43.667Z,32.87
2019-03-24T10:23:13.458Z,30.02
2019-03-24T10:25:43.288Z,26.50
2019-03-24T10:28:13.071Z,35.77
2019-03-24T10:30:42.888Z,23.77
2019-03-24T10:33:12.679Z,26.33
2019-03-24T10:35:42.473Z,25.60
2019-03-24T10:38:12.280Z,26.80
2019-03-24T10:40:42.070Z,24.53
2019-03-24T10:43:11.862Z,25.57
2019-03-24T10:45:41.663Z,18.47
2019-03-24T10:48:11.466Z,27.00
2019-03-24T10:50:41.247Z,23.63
2019-03-24T10:53:11.050Z,21.90
2019-03-24T10:55:40.826Z,20.27
2019-03-24T10:58:10.626Z,20.27
2019-03-24T11:00:41.962Z,28.30
2019-03-24T11:03:11.842Z,19.97
2019-03-24T11:05:41.700Z,24.87
2019-03-24T11:08:11.499Z,23.77
2019-03-24T11:10:41.276Z,19.80
2019-03-24T11:13:11.147Z,20.27
2019-03-24T11:15:40.923Z,22.13
2019-03-24T11:18:10.726Z,20.67
2019-03-24T11:20:40.516Z,19.60
2019-03-24T11:23:10.318Z,22.57
2019-03-24T11:25:40.127Z,22.87
2019-03-24T11:28:09.975Z,24.37
2019-03-24T11:30:39.776Z,21.73
2019-03-24T11:33:09.628Z,18.57
2019-03-24T11:35:39.416Z,20.97
2019-03-24T11:38:09.202Z,21.20
2019-03-24T11:40:38.996Z,19.37
2019-03-24T11:43:08.785Z,19.30
2019-03-24T11:45:38.590Z,15.07
2019-03-24T11:48:08.372Z,15.07
2019-03-24T11:50:38.234Z,11.20
2019-03-24T11:53:08.022Z,13.47
2019-03-24T11:55:37.832Z,15.47
2019-03-24T11:58:07.622Z,11.57
2019-03-24T12:00:38.852Z,13.27
2019-03-24T12:03:08.638Z,16.30
2019-03-24T12:05:38.491Z,14.73
2019-03-24T12:08:08.507Z,25.47
2019-03-24T12:10:38.449Z,19.30
2019-03-24T12:13:08.321Z,16.83
2019-03-24T12:15:38.102Z,18.00
2019-03-24T12:18:07.906Z,18.50
2019-03-24T12:20:38.759Z,16.63
2019-03-24T12:23:08.573Z,21.53
2019-03-24T12:25:38.360Z,24.90
2019-03-24T12:28:08.171Z,22.53
2019-03-24T12:30:38.046Z,24.60
2019-03-24T12:33:07.843Z,19.80
2019-03-24T12:35:38.705Z,11.37
2019-03-24T12:38:08.581Z,16.30
2019-03-24T12:40:38.430Z,19.10
2019-03-24T12:43:18.580Z,20.77
2019-03-24T12:45:39.719Z,15.03
2019-03-24T12:48:09.548Z,17.77
2019-03-24T12:50:39.372Z,15.87
2019-03-24T12:53:09.183Z,12.37
2019-03-24T12:55:38.967Z,10.27
2019-03-24T12:58:08.768Z,14.47
2019-03-24T13:00:39.308Z,13.53
2019-03-24T13:03:09.180Z,9.40
2019-03-24T13:05:39.030Z,13.33
2019-03-24T13:08:13.985Z,14.57
2019-03-24T13:10:44.214Z,12.73
2019-03-24T13:13:14.076Z,17.27
2019-03-24T13:15:43.945Z,11.03
2019-03-24T13:18:13.804Z,8.73
2019-03-24T13:20:43.748Z,15.90
2019-03-24T13:23:14.423Z,11.37
2019-03-24T13:25:44.205Z,9.07
2019-03-24T13:28:14.015Z,10.27
2019-03-24T13:30:43.795Z,7.97
2019-03-24T13:33:13.607Z,11.57
2019-03-24T13:35:43.402Z,12.03
2019-03-24T13:38:13.215Z,8.05
2019-03-24T13:40:43.084Z,11.43
2019-03-24T13:43:13.948Z,10.27
2019-03-24T13:45:43.724Z,9.50
2019-03-24T13:48:13.524Z,8.30
2019-03-24T13:50:43.308Z,6.80
2019-03-24T13:53:13.094Z,8.35
2019-03-24T13:55:42.885Z,5.90
2019-03-24T13:58:12.734Z,6.05
2019-03-24T14:00:42.600Z,7.20
2019-03-24T14:03:13.346Z,6.75
2019-03-24T14:05:43.152Z,7.47
2019-03-24T14:08:12.919Z,6.67
2019-03-24T14:10:42.710Z,8.35
2019-03-24T14:13:13.624Z,7.97
2019-03-24T14:15:43.508Z,7.22
2019-03-24T14:18:13.374Z,10.40
2019-03-24T14:20:43.970Z,5.37
2019-03-24T14:23:14.050Z,6.92
2019-03-24T14:25:43.842Z,10.60
2019-03-24T14:28:13.632Z,6.35
2019-03-24T14:30:48.335Z,9.45
2019-03-24T14:33:18.139Z,8.83
2019-03-24T14:35:47.931Z,7.58
2019-03-24T14:38:17.711Z,6.03
2019-03-24T14:40:47.496Z,6.85
2019-03-24T14:43:17.292Z,4.92
2019-03-24T14:45:47.167Z,4.83
2019-03-24T14:48:16.954Z,6.92
2019-03-24T14:50:54.448Z,7.65
2019-03-24T14:53:18.242Z,7.65
2019-03-24T14:55:48.026Z,5.90
2019-03-24T14:58:17.815Z,9.38
2019-03-24T15:00:48.057Z,10.38
2019-03-24T15:03:17.833Z,9.00
2019-03-24T15:05:47.629Z,7.30
2019-03-24T15:08:17.420Z,5.90
2019-03-24T15:10:47.201Z,6.28
2019-03-24T15:13:16.983Z,4.92
2019-03-24T15:15:46.834Z,4.70
2019-03-24T15:18:16.620Z,6.62
2019-03-24T15:20:46.466Z,6.60
2019-03-24T15:23:16.261Z,9.33
2019-03-24T15:25:46.042Z,4.47
2019-03-24T15:28:15.844Z,5.10
2019-03-24T15:30:45.702Z,4.28
2019-03-24T15:33:15.482Z,4.55
2019-03-24T15:35:45.274Z,6.20
2019-03-24T15:38:15.062Z,7.28
2019-03-24T15:40:44.841Z,4.67
2019-03-24T15:43:14.624Z,6.85
2019-03-24T15:45:44.418Z,8.90
2019-03-24T15:48:14.199Z,3.90
2019-03-24T15:50:43.993Z,6.05
2019-03-24T15:53:13.784Z,5.92
2019-03-24T15:55:43.608Z,3.77
2019-03-24T15:58:13.456Z,5.20
2019-03-24T16:00:45.080Z,3.72
2019-03-24T16:03:14.924Z,3.60
2019-03-24T16:05:44.783Z,2.83
2019-03-24T16:08:14.568Z,5.67
2019-03-24T16:10:44.449Z,5.50
2019-03-24T16:13:14.235Z,5.37
2019-03-24T16:15:44.100Z,4.03
2019-03-24T16:18:13.927Z,5.00
2019-03-24T16:20:45.399Z,4.67
2019-03-24T16:23:15.190Z,4.67
2019-03-24T16:25:45.043Z,4.73
2019-03-24T16:28:14.820Z,5.23
2019-03-24T16:30:44.628Z,5.23
2019-03-24T16:33:14.426Z,4.67
2019-03-24T16:35:44.219Z,6.10
2019-03-24T16:38:14.061Z,9.30
2019-03-24T16:40:43.865Z,7.00
2019-03-24T16:43:13.648Z,5.73
2019-03-24T16:45:43.429Z,6.67
2019-03-24T16:48:13.235Z,7.33
2019-03-24T16:50:43.007Z,3.97
2019-03-24T16:53:12.803Z,5.90
2019-03-24T16:55:42.596Z,4.27
2019-03-24T16:58:12.447Z,6.10
2019-03-24T17:00:42.318Z,3.97
2019-03-24T17:03:12.177Z,6.23
2019-03-24T17:05:41.955Z,5.93
2019-03-24T17:08:11.831Z,5.27
2019-03-24T17:10:41.606Z,7.13
2019-03-24T17:13:11.467Z,6.10
2019-03-24T17:15:41.275Z,5.47
2019-03-24T17:18:11.088Z,3.73
2019-03-24T17:20:40.881Z,6.17
2019-03-24T17:23:10.676Z,6.20
2019-03-24T17:25:40.459Z,4.40
2019-03-24T17:28:10.245Z,4.23
2019-03-24T17:30:40.027Z,5.63
2019-03-24T17:33:09.803Z,6.13
2019-03-24T17:35:39.683Z,7.53
2019-03-24T17:38:09.487Z,6.13
2019-03-24T17:40:39.317Z,5.10
2019-03-24T17:43:09.131Z,4.30
2019-03-24T17:45:38.933Z,7.03
2019-03-24T17:48:08.729Z,6.97
2019-03-24T17:50:38.513Z,5.23
2019-03-24T17:53:08.283Z,8.47
2019-03-24T17:55:38.080Z,4.40
2019-03-24T17:58:07.855Z,6.47
2019-03-24T18:00:47.548Z,6.23
2019-03-24T18:03:17.328Z,8.97
2019-03-24T18:05:47.206Z,7.73
2019-03-24T18:08:16.985Z,6.57
2019-03-24T18:10:47.718Z,6.87
2019-03-24T18:13:17.523Z,8.47
2019-03-24T18:15:47.317Z,6.20
2019-03-24T18:18:17.106Z,7.67
2019-03-24T18:20:46.884Z,8.30
2019-03-24T18:23:16.680Z,9.93
2019-03-24T18:25:46.454Z,9.63
2019-03-24T18:28:16.311Z,7.00
2019-03-24T18:30:46.159Z,8.27
2019-03-24T18:33:15.949Z,8.70
2019-03-24T18:35:45.740Z,5.93
2019-03-24T18:38:15.600Z,9.40
2019-03-24T18:40:45.399Z,10.63
2019-03-24T18:43:15.187Z,9.63
2019-03-24T18:45:45.071Z,8.10
2019-03-24T18:48:14.883Z,12.60
2019-03-24T18:50:44.683Z,15.95
2019-03-24T18:53:14.551Z,11.03
2019-03-24T18:55:44.347Z,12.87
2019-03-24T18:58:14.177Z,13.20
2019-03-24T19:00:43.955Z,9.70
2019-03-24T19:03:13.834Z,10.60
2019-03-24T19:05:43.607Z,7.47
2019-03-24T19:08:13.420Z,8.77
2019-03-24T19:10:44.283Z,13.10
2019-03-24T19:13:14.077Z,10.97
2019-03-24T19:15:43.859Z,9.17
2019-03-24T19:18:13.652Z,8.97
2019-03-24T19:20:43.435Z,8.93
2019-03-24T19:23:13.255Z,8.93
2019-03-24T19:25:43.031Z,9.00
2019-03-24T19:28:12.827Z,11.30
2019-03-24T19:30:42.678Z,9.67
2019-03-24T19:33:12.457Z,10.63
2019-03-24T19:35:42.375Z,11.90
2019-03-24T19:38:12.331Z,12.47
2019-03-24T19:40:42.115Z,10.50
2019-03-24T19:43:11.891Z,13.17
2019-03-24T19:45:42.663Z,9.00
2019-03-24T19:48:12.442Z,9.07
2019-03-24T19:50:42.231Z,13.33
2019-03-24T19:53:13.083Z,10.70
2019-03-24T19:55:42.958Z,11.90
2019-03-24T19:58:12.739Z,10.27
2019-03-24T20:00:42.538Z,11.07
2019-03-24T20:03:12.329Z,9.13
2019-03-24T20:05:42.278Z,9.83
2019-03-24T20:08:12.218Z,10.60
2019-03-24T20:10:41.984Z,8.33
2019-03-24T20:13:11.767Z,8.03
2019-03-24T20:15:41.543Z,10.87
2019-03-24T20:18:11.342Z,7.30
2019-03-24T20:20:41.131Z,15.93
2019-03-24T20:23:10.917Z,10.93
2019-03-24T20:25:40.765Z,11.67
2019-03-24T20:28:10.589Z,9.90
2019-03-24T20:30:40.363Z,8.83
2019-03-24T20:33:10.145Z,9.07
2019-03-24T20:35:39.917Z,6.10
2019-03-24T20:38:10.672Z,8.20
2019-03-24T20:40:40.511Z,7.83
2019-03-24T20:43:10.369Z,10.23
2019-03-24T20:45:40.155Z,12.33
2019-03-24T20:48:09.943Z,12.00
2019-03-24T20:50:41.325Z,13.43
2019-03-24T20:53:18.146Z,9.57
2019-03-24T20:55:42.596Z,8.77
2019-03-24T20:58:12.410Z,13.70
2019-03-24T21:00:43.159Z,7.87
2019-03-24T21:03:13.019Z,10.27
2019-03-24T21:05:42.798Z,10.43
2019-03-24T21:08:12.583Z,10.63
2019-03-24T21:10:42.442Z,8.13
2019-03-24T21:13:12.213Z,7.83
2019-03-24T21:15:41.991Z,11.30
2019-03-24T21:18:11.766Z,12.63
2019-03-24T21:20:41.569Z,10.03
2019-03-24T21:23:11.407Z,8.50
2019-03-24T21:25:41.213Z,10.67
2019-03-24T21:28:10.983Z,11.43
2019-03-24T21:30:41.287Z,10.00
2019-03-24T21:33:11.090Z,9.50
2019-03-24T21:35:40.944Z,9.40
2019-03-24T21:38:10.735Z,8.13
2019-03-24T21:40:41.579Z,12.93
2019-03-24T21:43:11.383Z,12.60
2019-03-24T21:45:41.160Z,8.97
2019-03-24T21:48:17.479Z,10.00
2019-03-24T21:50:47.279Z,13.47
2019-03-24T21:53:17.063Z,12.50
2019-03-24T21:55:46.856Z,13.37
2019-03-24T21:58:16.714Z,10.10
2019-03-24T22:00:46.504Z,11.33
2019-03-24T22:03:16.294Z,11.40
2019-03-24T22:05:46.076Z,13.60
2019-03-24T22:08:15.862Z,13.17
2019-03-24T22:10:45.648Z,10.73
2019-03-24T22:13:15.432Z,8.90
2019-03-24T22:15:45.225Z,13.33
2019-03-24T22:18:15.018Z,10.83
2019-03-24T22:20:49.250Z,12.10
2019-03-24T22:23:16.290Z,11.90
2019-03-24T22:25:46.069Z,11.20
2019-03-24T22:28:15.861Z,16.43
2019-03-24T22:30:45.714Z,11.60
2019-03-24T22:33:15.496Z,7.23
2019-03-24T22:35:47.132Z,11.00
2019-03-24T22:38:16.767Z,9.67
2019-03-24T22:40:46.537Z,14.30
2019-03-24T22:43:16.357Z,12.83
2019-03-24T22:45:46.133Z,19.97
2019-03-24T22:48:15.926Z,11.17
2019-03-24T22:50:45.698Z,11.20
2019-03-24T22:53:15.492Z,10.20
2019-03-24T22:55:45.273Z,9.93
2019-03-24T22:58:15.058Z,9.93
2019-03-24T23:00:46.609Z,14.17
2019-03-24T23:03:16.470Z,18.47
2019-03-24T23:05:46.250Z,15.57
2019-03-24T23:08:16.062Z,12.40
2019-03-24T23:10:45.842Z,16.40
2019-03-24T23:13:15.646Z,13.83
2019-03-24T23:15:46.506Z,16.90
2019-03-24T23:18:17.422Z,13.53
2019-03-24T23:20:47.249Z,13.53
2019-03-24T23:23:17.086Z,18.10
2019-03-24T23:25:47.013Z,13.73
2019-03-24T23:28:16.804Z,18.40
2019-03-24T23:30:46.604Z,16.00
2019-03-24T23:33:16.381Z,16.10
2019-03-24T23:35:46.235Z,15.67
2019-03-24T23:38:16.038Z,17.33
2019-03-24T23:40:45.840Z,16.10
2019-03-24T23:43:15.624Z,10.87
2019-03-24T23:45:46.491Z,15.87
2019-03-24T23:48:16.264Z,15.37
2019-03-24T23:50:46.060Z,10.87
2019-03-24T23:53:15.849Z,16.33
2019-03-24T23:55:45.715Z,14.40
2019-03-24T23:58:15.499Z,15.17
